Terminal Aerodrome Forecast
Issued by NWS Jackson, MS

Home | Current Version | Previous Version | Text Only | Print | Product List | Glossary On
Versions: 1 2 3 4 5 6 7 8 9 10 11 12 13
349
FTUS44 KMEG 241135
TAFTUP
TAF
KTUP 241135Z 2412/2512 VRB03KT P6SM BKN250
     FM241600 22007KT P6SM FEW040 BKN250
     FM242300 21004KT P6SM SCT040 BKN150=

USA.gov is the U.S. government's official web portal to all federal, state and local government web resources and services.